Time;durP1;ratioP1;P1;durP2;ratioP2;P2;SDS_P1;SDS_P2;PMS_P1;PMS_P2;Temp;Humidity;BMP_temperature;BMP_pressure;BME280_temperature;BME280_humidity;BME280_pressure;Samples;Min_cycle;Max_cycle;Signal;HPM_P1;HPM_P2
2022/08/13 00:00:10;;;;;;;;;;;;;;;23.07;34.06;101502.19;5023254;28;19940;-89
2022/08/13 00:02:38;;;;;;;;;;;;;;;23.05;33.34;101507.72;5025363;28;20007;-90
2022/08/13 00:05:05;;;;;;;;;;;;;;;22.95;34.39;101506.75;5024216;28;19925;-89
2022/08/13 00:07:30;;;;;;;;;;;;;;;22.88;34.18;101502.78;5024096;28;19921;-89
2022/08/13 00:09:56;;;;;;;;;;;;;;;22.78;34.73;101505.38;5027351;28;19924;-90
2022/08/13 00:15:20;;;;;;;;;;;;;;;22.69;35.08;101508.81;5022933;28;20378;-89
2022/08/13 00:17:45;;;;;;;;;;;;;;;;;;5023606;28;19920;-90
2022/08/13 00:20:11;;;;;;;;;;;;;;;22.56;35.21;101506.25;5019799;28;20059;-90
2022/08/13 00:22:36;;;;;;;;;;;;;;;22.51;35.02;101507.59;5027167;28;19917;-89
2022/08/13 00:25:04;;;;;;;;;;;;;;;22.39;35.43;101499.53;5028517;28;19983;-90
2022/08/13 00:27:29;;;;;;;;;;;;;;;22.25;35.55;101509.69;5024218;28;20488;-91
2022/08/13 00:29:56;;;;;;;;;;;;;;;22.10;35.24;101503.59;5026884;28;20011;-90
2022/08/13 00:32:29;;;;;;;;;;;;;;;22.02;35.67;101508.75;5023895;28;20469;-90
2022/08/13 00:34:55;;;;;;;;;;;;;;;21.96;36.13;101507.38;5027543;28;20360;-90
2022/08/13 00:37:22;;;;;;;;;;;;;;;21.90;37.15;101510.56;5028146;28;20191;-90
2022/08/13 00:39:47;;;;;;;;;;;;;;;21.77;36.70;101502.56;5026632;28;19978;-90
2022/08/13 00:42:13;;;;;;;;;;;;;;;21.68;37.03;101508.63;5028280;28;20314;-89
2022/08/13 00:44:39;;;;;;;;;;;;;;;21.60;36.36;101503.88;5025590;28;19925;-90
2022/08/13 00:49:49;;;;;;;;;;;;;;;21.51;36.97;101511.78;5029217;28;19963;-90
2022/08/13 00:52:14;;;;;;;;;;;;;;;21.46;38.01;101509.44;5028054;28;19986;-89
2022/08/13 00:54:42;;;;;;;;;;;;;;;21.49;36.79;101513.72;5034238;28;19925;-90
2022/08/13 00:57:10;;;;;;;;;;;;;;;21.59;36.62;101512.03;5031432;28;19986;-90
2022/08/13 00:59:35;;;;;;;;;;;;;;;21.66;37.65;101510.59;5029198;28;19932;-89
2022/08/13 01:02:01;;;;;;;;;;;;;;;21.60;36.52;101516.47;5028195;28;20330;-90
2022/08/13 01:04:28;;;;;;;;;;;;;;;21.57;37.57;101511.31;5027988;28;20465;-89
2022/08/13 01:06:57;;;;;;;;;;;;;;;21.50;39.96;101520.81;5029688;28;20160;-90
2022/08/13 01:09:22;;;;;;;;;;;;;;;21.45;37.96;101514.91;5024308;28;20356;-90
2022/08/13 01:11:48;;;;;;;;;;;;;;;21.30;38.53;101509.69;5025842;28;19962;-89
2022/08/13 01:14:14;;;;;;;;;;;;;;;21.11;38.49;101512.00;5028864;28;19940;-89
2022/08/13 01:16:39;;;;;;;;;;;;;;;20.93;39.99;101510.69;5029621;28;20368;-89
2022/08/13 01:19:07;;;;;;;;;;;;;;;20.86;39.47;101515.66;5025077;28;19925;-90
2022/08/13 01:21:52;;;;;;;;;;;;;;;20.80;39.95;101511.59;5025687;28;20378;-89
2022/08/13 01:24:19;;;;;;;;;;;;;;;20.69;40.06;101514.16;5025862;28;19940;-89
2022/08/13 01:26:45;;;;;;;;;;;;;;;20.62;40.94;101513.78;5029817;28;20602;-89
2022/08/13 01:29:10;;;;;;;;;;;;;;;20.61;39.76;101520.13;5026616;28;20038;-90
2022/08/13 01:31:35;;;;;;;;;;;;;;;20.60;39.84;101521.06;5029855;28;20368;-90
2022/08/13 01:34:03;;;;;;;;;;;;;;;20.58;40.91;101525.69;5027478;28;19921;-89
2022/08/13 01:36:29;;;;;;;;;;;;;;;20.59;40.49;101523.88;5028903;28;20299;-90
2022/08/13 01:38:57;;;;;;;;;;;;;;;20.59;40.23;101518.50;5026568;28;19917;-89
2022/08/13 01:41:24;;;;;;;;;;;;;;;20.70;39.88;101515.03;5026388;28;20280;-89
2022/08/13 01:43:49;;;;;;;;;;;;;;;20.73;40.70;101517.50;5028674;28;20015;-90
2022/08/13 01:46:14;;;;;;;;;;;;;;;20.71;39.65;101517.63;5023002;28;20403;-89
2022/08/13 01:51:28;;;;;;;;;;;;;;;20.61;41.29;101513.84;5017906;28;19963;-88
2022/08/13 01:53:58;;;;;;;;;;;;;;;20.46;40.92;101509.56;5029126;28;19917;-90
2022/08/13 01:56:23;;;;;;;;;;;;;;;20.31;41.35;101511.50;5028719;28;19925;-89
2022/08/13 01:58:52;;;;;;;;;;;;;;;20.23;40.51;101512.03;5028438;28;20414;-88
2022/08/13 02:01:18;;;;;;;;;;;;;;;20.26;40.56;101517.19;5024783;28;19929;-89
2022/08/13 02:03:49;;;;;;;;;;;;;;;20.28;40.20;101514.41;5029133;28;19924;-89
2022/08/13 02:06:20;;;;;;;;;;;;;;;20.33;40.07;101517.63;5028734;28;20429;-89
2022/08/13 02:08:45;;;;;;;;;;;;;;;20.35;40.04;101516.56;5025933;28;20360;-88
2022/08/13 02:11:10;;;;;;;;;;;;;;;20.29;40.79;101510.75;5028841;28;19917;-89
2022/08/13 02:13:36;;;;;;;;;;;;;;;20.25;41.16;101517.31;5027855;28;19916;-89
2022/08/13 02:16:01;;;;;;;;;;;;;;;20.17;41.17;101516.97;5027042;28;19917;-90
2022/08/13 02:18:26;;;;;;;;;;;;;;;20.15;40.73;101513.56;5029010;28;19921;-89
2022/08/13 02:20:53;;;;;;;;;;;;;;;20.06;41.83;101509.69;5028209;28;20415;-89
2022/08/13 02:23:20;;;;;;;;;;;;;;;20.05;40.93;101510.63;5030101;28;20271;-89
2022/08/13 02:25:45;;;;;;;;;;;;;;;20.04;41.08;101516.97;5024370;28;19917;-89
2022/08/13 02:28:14;;;;;;;;;;;;;;;19.84;40.70;101516.53;5029682;28;19920;-89
2022/08/13 02:30:40;;;;;;;;;;;;;;;19.71;41.75;101512.09;5023958;28;19924;-90
2022/08/13 02:33:05;;;;;;;;;;;;;;;19.58;41.56;101515.59;5019582;28;19917;-89
2022/08/13 02:35:31;;;;;;;;;;;;;;;19.49;43.67;101515.31;5022427;28;19933;-89
2022/08/13 02:37:57;;;;;;;;;;;;;;;19.42;43.36;101519.38;5026902;28;20000;-90
2022/08/13 02:43:06;;;;;;;;;;;;;;;19.17;43.92;101514.78;5026709;28;19928;-90
2022/08/13 02:45:31;;;;;;;;;;;;;;;19.06;44.31;101513.66;5025821;28;19917;-89
2022/08/13 02:47:57;;;;;;;;;;;;;;;18.94;44.23;101516.28;5027907;28;19924;-90
2022/08/13 02:50:24;;;;;;;;;;;;;;;18.83;45.72;101512.44;5019325;28;20409;-89
2022/08/13 02:52:51;;;;;;;;;;;;;;;18.79;46.23;101507.38;5035689;28;19916;-89
2022/08/13 02:55:16;;;;;;;;;;;;;;;18.69;45.66;101507.13;5031995;28;19921;-90
2022/08/13 02:57:42;;;;;;;;;;;;;;;18.62;44.85;101505.75;5024289;28;20060;-89
2022/08/13 03:00:08;;;;;;;;;;;;;;;18.61;44.69;101520.13;5022890;28;20059;-88
2022/08/13 03:02:37;;;;;;;;;;;;;;;18.65;44.69;101510.91;5021141;28;20292;-89
2022/08/13 03:05:03;;;;;;;;;;;;;;;18.64;44.59;101514.53;5023416;28;20491;-90
2022/08/13 03:07:29;;;;;;;;;;;;;;;18.67;45.20;101503.66;5021782;28;19921;-89
2022/08/13 03:09:55;;;;;;;;;;;;;;;18.66;44.87;101511.78;5024103;28;20358;-88
2022/08/13 03:12:21;;;;;;;;;;;;;;;18.68;43.66;101509.88;5026820;28;20000;-88
2022/08/13 03:14:48;;;;;;;;;;;;;;;18.69;44.46;101509.78;5020235;28;19951;-89
2022/08/13 03:17:13;;;;;;;;;;;;;;;18.66;44.21;101509.13;5025913;28;19925;-90
2022/08/13 03:19:38;;;;;;;;;;;;;;;18.61;45.63;101518.31;5020974;28;19929;-89
2022/08/13 03:22:03;;;;;;;;;;;;;;;18.60;44.80;101510.34;5025725;28;19925;-89
2022/08/13 03:24:28;;;;;;;;;;;;;;;18.55;46.50;101501.75;5021246;28;20300;-89
2022/08/13 03:26:54;;;;;;;;;;;;;;;18.51;45.26;101516.28;5022566;28;20004;-89
2022/08/13 03:29:19;;;;;;;;;;;;;;;18.47;44.83;101510.28;5020115;28;19932;-88
2022/08/13 03:31:46;;;;;;;;;;;;;;;18.43;44.97;101513.25;5024046;28;19917;-89
2022/08/13 03:34:11;;;;;;;;;;;;;;;18.39;46.29;101517.06;5025913;28;20011;-90
2022/08/13 03:36:37;;;;;;;;;;;;;;;18.36;43.69;101505.56;5026613;28;20004;-89
2022/08/13 03:39:03;;;;;;;;;;;;;;;18.40;45.15;101510.75;5024884;28;19921;-89
2022/08/13 03:41:28;;;;;;;;;;;;;;;18.37;44.98;101514.47;5022887;28;20494;-89
2022/08/13 03:43:54;;;;;;;;;;;;;;;18.34;45.29;101510.16;5026574;28;19917;-89
2022/08/13 03:46:20;;;;;;;;;;;;;;;18.30;44.51;101519.34;5027281;28;19960;-89
2022/08/13 03:48:49;;;;;;;;;;;;;;;18.24;43.85;101511.69;5022786;28;20282;-89
2022/08/13 03:51:16;;;;;;;;;;;;;;;18.24;44.29;101514.38;5021806;28;20440;-89
2022/08/13 03:53:42;;;;;;;;;;;;;;;18.21;46.08;101514.56;5027534;28;19921;-88
2022/08/13 03:56:07;;;;;;;;;;;;;;;18.18;46.06;101514.72;5024958;28;19975;-88
2022/08/13 03:58:33;;;;;;;;;;;;;;;18.15;44.91;101509.59;5026861;28;19913;-89
2022/08/13 04:00:59;;;;;;;;;;;;;;;18.17;45.85;101515.69;5028221;28;20240;-89
2022/08/13 04:03:28;;;;;;;;;;;;;;;18.14;45.79;101515.00;5022246;28;20016;-89
2022/08/13 04:05:58;;;;;;;;;;;;;;;18.14;46.26;101515.00;5022126;28;19925;-89
2022/08/13 04:08:24;;;;;;;;;;;;;;;18.10;46.29;101511.69;5022961;28;19921;-89
2022/08/13 04:10:50;;;;;;;;;;;;;;;18.10;45.33;101509.88;5023628;28;19921;-89
2022/08/13 04:13:15;;;;;;;;;;;;;;;18.10;45.50;101511.69;5020399;28;20269;-89
2022/08/13 04:15:42;;;;;;;;;;;;;;;18.08;44.84;101506.41;5025682;28;20073;-89
2022/08/13 04:18:08;;;;;;;;;;;;;;;18.09;44.57;101512.63;5025783;28;19917;-90
2022/08/13 04:20:34;;;;;;;;;;;;;;;18.14;44.38;101505.19;5026422;28;20371;-89
2022/08/13 04:23:00;;;;;;;;;;;;;;;18.15;44.85;101514.94;5022661;28;19920;-88
2022/08/13 04:25:25;;;;;;;;;;;;;;;18.17;45.34;101520.19;5026958;28;19983;-89
2022/08/13 04:27:50;;;;;;;;;;;;;;;18.19;46.39;101515.63;5025977;28;19918;-89
2022/08/13 04:30:20;;;;;;;;;;;;;;;18.20;45.20;101520.88;5024927;28;19917;-89
2022/08/13 04:32:48;;;;;;;;;;;;;;;18.21;45.42;101516.38;5025272;28;20372;-88
2022/08/13 04:35:13;;;;;;;;;;;;;;;18.25;43.69;101521.44;5026638;28;20331;-88
2022/08/13 04:37:39;;;;;;;;;;;;;;;18.34;43.84;101520.03;5024326;28;19925;-88
2022/08/13 04:40:05;;;;;;;;;;;;;;;18.44;44.13;101514.94;5022587;28;19921;-88
2022/08/13 04:42:44;;;;;;;;;;;;;;;18.40;44.46;101524.97;5027676;28;20384;-87
2022/08/13 04:45:09;;;;;;;;;;;;;;;18.42;45.76;101514.16;5024661;28;19940;-88
2022/08/13 04:47:34;;;;;;;;;;;;;;;18.38;45.72;101518.03;5021196;28;20372;-88
2022/08/13 04:50:00;;;;;;;;;;;;;;;18.35;46.14;101522.59;5022089;28;19988;-88
2022/08/13 04:52:25;;;;;;;;;;;;;;;18.30;45.49;101524.69;5027110;28;20016;-88
2022/08/13 04:54:51;;;;;;;;;;;;;;;18.27;45.17;101524.88;5025354;28;19925;-88
2022/08/13 04:57:16;;;;;;;;;;;;;;;18.27;45.14;101527.56;5026229;28;19929;-89
2022/08/13 04:59:42;;;;;;;;;;;;;;;18.29;44.79;101532.84;5024652;28;19929;-88
2022/08/13 05:02:08;;;;;;;;;;;;;;;18.23;45.73;101535.88;5023980;28;19944;-88
2022/08/13 05:04:33;;;;;;;;;;;;;;;18.21;45.77;101527.94;5022450;28;20135;-88
2022/08/13 05:06:58;;;;;;;;;;;;;;;18.23;45.53;101522.47;5026727;28;19921;-88
2022/08/13 05:09:23;;;;;;;;;;;;;;;18.24;46.37;101529.56;5020763;28;19940;-88
2022/08/13 05:11:49;;;;;;;;;;;;;;;18.21;46.36;101530.63;5029050;28;19967;-89
2022/08/13 05:14:14;;;;;;;;;;;;;;;18.21;45.80;101535.97;5026890;28;20376;-88
2022/08/13 05:16:39;;;;;;;;;;;;;;;18.23;47.04;101533.19;5023448;28;19921;-88
2022/08/13 05:19:05;;;;;;;;;;;;;;;18.23;46.98;101536.75;5023826;28;20000;-88
2022/08/13 05:21:32;;;;;;;;;;;;;;;18.27;47.12;101530.22;5021836;28;19925;-88
2022/08/13 05:23:58;;;;;;;;;;;;;;;18.33;46.37;101532.53;5022099;28;19921;-89
2022/08/13 05:26:24;;;;;;;;;;;;;;;18.35;47.13;101538.66;5026960;28;19917;-88
2022/08/13 05:28:50;;;;;;;;;;;;;;;18.37;46.53;101538.56;5026538;28;19917;-88
2022/08/13 05:31:17;;;;;;;;;;;;;;;18.43;46.64;101527.47;5026529;28;20609;-88
2022/08/13 05:33:42;;;;;;;;;;;;;;;18.51;47.82;101533.22;5026520;28;19917;-88
2022/08/13 05:36:09;;;;;;;;;;;;;;;18.61;44.19;101533.50;5028143;28;19917;-89
2022/08/13 05:38:35;;;;;;;;;;;;;;;18.64;46.32;101535.97;5026620;28;19925;-89
2022/08/13 05:41:02;;;;;;;;;;;;;;;18.67;46.29;101535.78;5026646;28;19925;-88
2022/08/13 05:43:29;;;;;;;;;;;;;;;18.71;47.09;101537.34;5029379;28;20008;-88
2022/08/13 05:45:58;;;;;;;;;;;;;;;18.78;46.48;101530.63;5027530;28;20398;-88
2022/08/13 05:48:27;;;;;;;;;;;;;;;18.85;47.21;101531.97;5039091;28;20402;-89
2022/08/13 05:50:54;;;;;;;;;;;;;;;18.92;46.58;101528.91;5027810;28;19921;-88
2022/08/13 05:53:19;;;;;;;;;;;;;;;18.99;46.30;101524.88;5024433;28;20288;-88
2022/08/13 05:55:44;;;;;;;;;;;;;;;19.07;46.77;101536.84;5028016;28;19924;-88
2022/08/13 05:58:13;;;;;;;;;;;;;;;19.11;46.45;101537.47;5027072;28;20081;-88
2022/08/13 06:03:27;;;;;;;;;;;;;;;19.28;46.60;101539.06;5027194;28;20435;-88
2022/08/13 06:05:56;;;;;;;;;;;;;;;19.37;45.32;101539.31;5022168;28;20465;-87
2022/08/13 06:08:26;;;;;;;;;;;;;;;19.48;46.28;101537.75;5027661;28;19920;-88
2022/08/13 06:10:52;;;;;;;;;;;;;;;19.55;46.21;101534.56;5028586;28;19937;-88
2022/08/13 06:13:17;;;;;;;;;;;;;;;19.60;46.30;101534.28;5024539;28;19929;-88
2022/08/13 06:15:43;;;;;;;;;;;;;;;19.69;45.50;101539.03;5031562;28;20102;-88
2022/08/13 06:18:09;;;;;;;;;;;;;;;19.79;46.33;101534.75;5028754;28;19917;-88
2022/08/13 06:20:34;;;;;;;;;;;;;;;19.86;45.10;101533.41;5025883;28;19928;-88
2022/08/13 06:23:00;;;;;;;;;;;;;;;19.97;45.68;101537.16;5027153;28;19929;-87
2022/08/13 06:25:27;;;;;;;;;;;;;;;20.07;45.68;101536.41;5024748;28;19929;-88
2022/08/13 06:27:52;;;;;;;;;;;;;;;20.20;46.20;101532.88;5027012;28;19925;-88
2022/08/13 06:30:18;;;;;;;;;;;;;;;20.32;47.02;101530.19;5025362;28;20376;-88
2022/08/13 06:32:44;;;;;;;;;;;;;;;20.47;46.81;101538.13;5027825;28;19921;-88
2022/08/13 06:35:10;;;;;;;;;;;;;;;20.59;46.33;101531.94;5028181;28;20407;-87
2022/08/13 06:37:35;;;;;;;;;;;;;;;20.71;46.02;101543.66;5027464;28;20007;-88
2022/08/13 06:40:01;;;;;;;;;;;;;;;20.83;46.03;101535.53;5025338;28;19921;-88
2022/08/13 06:42:26;;;;;;;;;;;;;;;20.96;46.01;101540.88;5028551;28;19917;-87
2022/08/13 06:44:54;;;;;;;;;;;;;;;21.08;46.45;101533.78;5026678;28;19931;-88
2022/08/13 06:47:21;;;;;;;;;;;;;;;21.22;44.73;101541.69;5025961;28;20446;-88
2022/08/13 06:49:46;;;;;;;;;;;;;;;21.36;44.09;101538.00;5023824;28;19925;-87
2022/08/13 06:52:11;;;;;;;;;;;;;;;21.49;44.84;101543.31;5027575;28;19928;-88
2022/08/13 06:54:37;;;;;;;;;;;;;;;21.58;42.83;101539.91;5025198;28;20309;-87
2022/08/13 06:57:02;;;;;;;;;;;;;;;21.74;43.89;101545.88;5024346;28;20041;-88
2022/08/13 06:59:33;;;;;;;;;;;;;;;21.93;43.08;101536.41;5023570;28;19921;-87
2022/08/13 07:01:59;;;;;;;;;;;;;;;22.06;43.34;101550.63;5026449;28;20022;-87
2022/08/13 07:04:25;;;;;;;;;;;;;;;22.13;43.06;101546.50;5030140;28;19984;-87
2022/08/13 07:06:54;;;;;;;;;;;;;;;22.22;42.24;101542.25;5027781;28;19921;-87
2022/08/13 07:09:20;;;;;;;;;;;;;;;22.31;42.44;101539.69;5021913;28;20874;-87
2022/08/13 07:11:46;;;;;;;;;;;;;;;22.47;41.60;101551.94;5036103;28;19965;-87
2022/08/13 07:14:12;;;;;;;;;;;;;;;22.57;41.43;101545.72;5028507;28;19921;-87
2022/08/13 07:16:38;;;;;;;;;;;;;;;22.69;42.06;101549.25;5024365;28;19924;-87
2022/08/13 07:19:03;;;;;;;;;;;;;;;22.75;41.81;101551.44;5027002;28;19921;-87
2022/08/13 07:21:29;;;;;;;;;;;;;;;22.83;40.84;101553.53;5027852;28;19968;-87
2022/08/13 07:23:55;;;;;;;;;;;;;;;23.02;40.71;101548.41;5024471;28;20019;-87
2022/08/13 07:26:21;;;;;;;;;;;;;;;23.21;41.39;101546.91;5027878;28;19917;-87
2022/08/13 07:28:49;;;;;;;;;;;;;;;23.30;41.73;101549.69;5023380;28;19928;-88
2022/08/13 07:31:14;;;;;;;;;;;;;;;23.39;40.30;101548.94;5026637;28;19924;-87
2022/08/13 07:33:43;;;;;;;;;;;;;;;23.60;40.39;101550.84;5029382;28;19913;-87
2022/08/13 07:36:12;;;;;;;;;;;;;;;23.78;40.13;101560.13;5029149;28;19960;-87
2022/08/13 07:38:37;;;;;;;;;;;;;;;23.88;39.86;101549.41;5025471;28;20027;-87
2022/08/13 07:41:03;;;;;;;;;;;;;;;24.00;39.19;101551.03;5028357;28;20048;-87
2022/08/13 07:43:29;;;;;;;;;;;;;;;24.33;39.50;101549.97;5024357;28;19924;-87
2022/08/13 07:45:58;;;;;;;;;;;;;;;24.75;38.00;101552.63;5019969;28;19917;-87
2022/08/13 07:48:25;;;;;;;;;;;;;;;25.16;37.53;101548.09;5026178;28;19992;-87
2022/08/13 07:50:50;;;;;;;;;;;;;;;25.70;36.78;101552.13;5026288;28;20003;-87
2022/08/13 07:53:15;;;;;;;;;;;;;;;26.26;35.28;101555.97;5026178;28;19956;-87
2022/08/13 07:55:42;;;;;;;;;;;;;;;26.71;35.63;101556.09;5030849;28;20295;-88
2022/08/13 07:58:07;;;;;;;;;;;;;;;27.15;34.30;101553.66;5021601;28;19921;-87
2022/08/13 08:00:32;;;;;;;;;;;;;;;27.39;34.74;101553.91;5024333;28;19928;-87
2022/08/13 08:03:02;;;;;;;;;;;;;;;27.54;33.96;101561.50;5031766;28;20613;-87
2022/08/13 08:05:31;;;;;;;;;;;;;;;27.82;33.31;101560.44;5022665;28;19931;-88
2022/08/13 08:07:58;;;;;;;;;;;;;;;28.06;32.49;101553.50;5026900;28;19925;-87
2022/08/13 08:10:24;;;;;;;;;;;;;;;28.59;32.84;101556.09;5024737;28;20371;-88
2022/08/13 08:12:49;;;;;;;;;;;;;;;29.15;31.87;101560.13;5026501;28;19917;-89
2022/08/13 08:15:14;;;;;;;;;;;;;;;29.65;31.02;101555.63;5024533;28;19924;-88
2022/08/13 08:17:40;;;;;;;;;;;;;;;29.81;30.60;101561.09;5027727;28;19913;-89
2022/08/13 08:20:06;;;;;;;;;;;;;;;30.26;30.62;101558.88;5021845;28;19930;-89
2022/08/13 08:22:33;;;;;;;;;;;;;;;30.48;29.46;101552.69;5032677;28;19921;-89
2022/08/13 08:24:58;;;;;;;;;;;;;;;30.36;29.64;101565.03;5027922;28;20390;-88
2022/08/13 08:27:25;;;;;;;;;;;;;;;30.84;30.28;101560.47;5027920;28;19921;-89
2022/08/13 08:29:51;;;;;;;;;;;;;;;31.17;29.06;101555.69;5024013;28;19924;-89
2022/08/13 08:32:18;;;;;;;;;;;;;;;31.71;28.81;101563.88;5027739;28;19924;-89
2022/08/13 08:34:45;;;;;;;;;;;;;;;32.31;28.37;101563.03;5030283;28;19917;-89
2022/08/13 08:42:57;;;;;;;;;;;;;;;33.33;26.14;101562.34;5031992;28;19928;-89
2022/08/13 08:45:24;;;;;;;;;;;;;;;33.52;25.77;101564.47;5024559;28;19917;-89
2022/08/13 08:47:51;;;;;;;;;;;;;;;33.84;26.76;101559.50;5025412;28;19927;-89
2022/08/13 08:50:17;;;;;;;;;;;;;;;34.37;25.98;101563.56;5031546;28;19917;-89
2022/08/13 08:55:27;;;;;;;;;;;;;;;34.57;24.31;101566.47;5026234;28;19924;-89
2022/08/13 08:57:52;;;;;;;;;;;;;;;34.77;24.28;101563.81;5023923;28;19929;-90
2022/08/13 09:00:18;;;;;;;;;;;;;;;35.19;23.80;101567.41;5027722;28;19930;-90
2022/08/13 09:02:55;;;;;;;;;;;;;;;35.55;23.18;101564.38;5029856;28;19917;-89
2022/08/13 09:05:21;;;;;;;;;;;;;;;35.94;22.92;101562.69;5021526;28;20008;-89
2022/08/13 09:07:46;;;;;;;;;;;;;;;36.25;22.65;101560.16;5027270;28;20023;-90
2022/08/13 09:10:12;;;;;;;;;;;;;;;36.19;22.80;101563.78;5025873;28;19940;-89
2022/08/13 09:12:40;;;;;;;;;;;;;;;36.25;22.33;101559.31;5022960;28;20404;-89
2022/08/13 09:15:05;;;;;;;;;;;;;;;36.94;21.72;101553.25;5027131;28;19920;-90
2022/08/13 09:17:31;;;;;;;;;;;;;;;37.23;21.25;101550.97;5027196;28;19970;-90
2022/08/13 09:19:56;;;;;;;;;;;;;;;37.24;19.84;101544.41;5026650;28;20283;-89
2022/08/13 09:22:22;;;;;;;;;;;;;;;37.15;20.42;101552.06;5022059;28;19922;-88
2022/08/13 09:24:48;;;;;;;;;;;;;;;37.40;20.17;101546.69;5026772;28;19927;-90
2022/08/13 09:27:16;;;;;;;;;;;;;;;37.95;20.13;101544.13;5026028;28;20016;-89
2022/08/13 09:29:42;;;;;;;;;;;;;;;38.03;19.09;101554.91;5025385;28;19917;-89
2022/08/13 09:32:08;;;;;;;;;;;;;;;38.31;19.38;101550.00;5025620;28;19917;-88
2022/08/13 09:34:34;;;;;;;;;;;;;;;39.04;19.14;101552.78;5021996;28;20012;-89
2022/08/13 09:37:01;;;;;;;;;;;;;;;39.41;18.19;101544.41;5027555;28;20328;-88
2022/08/13 09:39:31;;;;;;;;;;;;;;;39.18;16.88;101554.28;5024992;28;19979;-89
2022/08/13 09:41:56;;;;;;;;;;;;;;;38.73;18.80;101546.31;5025918;28;19968;-89
2022/08/13 09:44:26;;;;;;;;;;;;;;;38.82;18.01;101543.28;5025331;28;19960;-90
2022/08/13 09:46:52;;;;;;;;;;;;;;;38.88;18.67;101548.72;5030250;28;20035;-90
2022/08/13 09:49:18;;;;;;;;;;;;;;;38.29;18.29;101542.75;5019531;28;20486;-89
2022/08/13 09:51:44;;;;;;;;;;;;;;;38.18;19.14;101542.66;5026778;28;20257;-89
2022/08/13 09:54:09;;;;;;;;;;;;;;;38.16;19.09;101536.53;5025802;28;19971;-90
2022/08/13 09:56:37;;;;;;;;;;;;;;;38.06;19.18;101534.28;5021497;28;20020;-89
2022/08/13 09:59:03;;;;;;;;;;;;;;;38.02;18.07;101531.13;5026611;28;20003;-88
2022/08/13 10:01:28;;;;;;;;;;;;;;;37.01;17.94;101529.25;5026011;28;19975;-89
2022/08/13 10:03:53;;;;;;;;;;;;;;;36.62;19.92;101526.63;5029503;28;19956;-88
2022/08/13 10:06:19;;;;;;;;;;;;;;;36.13;20.30;101527.97;5030083;28;19923;-88
2022/08/13 10:08:46;;;;;;;;;;;;;;;35.96;20.96;101524.84;5026833;28;20379;-89
2022/08/13 10:11:12;;;;;;;;;;;;;;;36.06;19.32;101524.41;5029139;28;20284;-88
2022/08/13 10:13:37;;;;;;;;;;;;;;;35.93;19.59;101515.06;5021568;28;19922;-88
2022/08/13 10:16:02;;;;;;;;;;;;;;;35.95;20.49;101515.72;5024911;28;19949;-89
2022/08/13 10:18:28;;;;;;;;;;;;;;;36.06;20.93;101505.97;5025756;28;19927;-88
2022/08/13 10:20:53;;;;;;;;;;;;;;;36.11;20.17;101517.19;5029553;28;19932;-89
2022/08/13 10:23:19;;;;;;;;;;;;;;;36.33;20.21;101512.28;5028184;28;20020;-87
2022/08/13 10:25:46;;;;;;;;;;;;;;;36.68;20.17;101510.06;5029647;28;19917;-89
2022/08/13 10:28:17;;;;;;;;;;;;;;;36.98;19.83;101499.38;5017685;28;20007;-88
2022/08/13 10:30:43;;;;;;;;;;;;;;;36.97;18.84;101508.69;5010408;28;19917;-87
2022/08/13 10:33:09;;;;;;;;;;;;;;;36.67;19.19;101502.88;5023495;28;20296;-89
2022/08/13 10:35:34;;;;;;;;;;;;;;;36.75;19.72;101499.88;5025975;28;19967;-88
2022/08/13 10:38:00;;;;;;;;;;;;;;;36.94;19.38;101495.38;5022917;28;20339;-88
2022/08/13 10:40:25;;;;;;;;;;;;;;;37.25;18.45;101493.69;5024806;28;19983;-88
2022/08/13 10:42:52;;;;;;;;;;;;;;;36.79;18.46;101500.25;5019609;28;19926;-88
2022/08/13 10:45:17;;;;;;;;;;;;;;;36.68;18.49;101495.44;5019950;28;19925;-88
2022/08/13 10:47:45;;;;;;;;;;;;;;;36.33;18.19;101498.50;5024850;28;19925;-88
2022/08/13 10:50:11;;;;;;;;;;;;;;;36.25;17.35;101499.59;5019481;28;20416;-88
2022/08/13 10:52:36;;;;;;;;;;;;;;;36.50;18.65;101504.41;5021514;28;19917;-89
2022/08/13 10:55:01;;;;;;;;;;;;;;;36.82;18.21;101494.31;5024887;28;20379;-89
2022/08/13 10:57:26;;;;;;;;;;;;;;;36.71;18.24;101489.50;5019942;28;19931;-88
2022/08/13 10:59:52;;;;;;;;;;;;;;;36.94;17.36;101489.00;5024295;28;20392;-88
2022/08/13 11:02:17;;;;;;;;;;;;;;;36.94;18.04;101487.09;5034389;28;19951;-89
2022/08/13 11:04:44;;;;;;;;;;;;;;;37.15;17.47;101490.56;5017961;28;19967;-88
2022/08/13 11:07:11;;;;;;;;;;;;;;;37.51;17.12;101493.53;5018630;28;20007;-89
2022/08/13 11:09:37;;;;;;;;;;;;;;;37.58;17.11;101490.69;5019549;28;19917;-89
2022/08/13 11:12:03;;;;;;;;;;;;;;;37.77;15.96;101494.34;5021727;28;20039;-88
2022/08/13 11:14:30;;;;;;;;;;;;;;;37.94;16.86;101492.75;5019090;28;20545;-86
2022/08/13 11:16:56;;;;;;;;;;;;;;;37.93;16.77;101481.94;5020206;28;19909;-88
2022/08/13 11:19:25;;;;;;;;;;;;;;;37.55;17.10;101484.81;5023444;28;19921;-88
2022/08/13 11:21:51;;;;;;;;;;;;;;;37.18;17.06;101476.34;5023577;28;20020;-88
2022/08/13 11:24:18;;;;;;;;;;;;;;;37.05;17.47;101482.78;5021372;28;20012;-88
2022/08/13 11:26:43;;;;;;;;;;;;;;;37.29;17.30;101478.38;5016326;28;20018;-88
2022/08/13 11:29:08;;;;;;;;;;;;;;;37.43;17.39;101468.97;5021906;28;20714;-87
2022/08/13 11:31:34;;;;;;;;;;;;;;;37.83;17.11;101471.38;5019767;28;20552;-89
2022/08/13 11:33:59;;;;;;;;;;;;;;;38.34;17.01;101467.50;5019961;28;19924;-88
2022/08/13 11:36:24;;;;;;;;;;;;;;;38.59;16.52;101463.81;5020342;28;19952;-88
2022/08/13 11:38:50;;;;;;;;;;;;;;;38.23;16.24;101459.94;5025024;28;19928;-88
2022/08/13 11:41:15;;;;;;;;;;;;;;;37.90;16.81;101469.44;5027739;28;19947;-88
2022/08/13 11:43:40;;;;;;;;;;;;;;;38.10;16.70;101473.91;5023819;28;19928;-89
2022/08/13 11:46:06;;;;;;;;;;;;;;;38.42;16.80;101466.34;5020953;28;20331;-88
2022/08/13 11:48:31;;;;;;;;;;;;;;;38.81;16.77;101461.41;5026395;28;19925;-88
2022/08/13 11:50:56;;;;;;;;;;;;;;;38.98;15.55;101457.72;5021783;28;20392;-88
2022/08/13 11:53:22;;;;;;;;;;;;;;;38.60;16.26;101465.47;5026860;28;19917;-88
2022/08/13 11:55:47;;;;;;;;;;;;;;;38.44;16.70;101459.53;5021855;28;19921;-89
2022/08/13 11:58:12;;;;;;;;;;;;;;;38.26;16.47;101457.56;5022860;28;19921;-88
2022/08/13 12:00:39;;;;;;;;;;;;;;;38.29;16.56;101461.81;5023988;28;19953;-87
2022/08/13 12:03:05;;;;;;;;;;;;;;;38.19;16.74;101459.59;5026092;28;20044;-89
2022/08/13 12:05:31;;;;;;;;;;;;;;;38.24;16.96;101453.34;5026024;28;20360;-87
2022/08/13 12:07:56;;;;;;;;;;;;;;;38.23;16.57;101460.78;5017548;28;19928;-89
2022/08/13 12:10:21;;;;;;;;;;;;;;;38.57;15.63;101457.66;5018966;28;19928;-89
2022/08/13 12:12:47;;;;;;;;;;;;;;;38.53;15.94;101460.91;5021298;28;20114;-89
2022/08/13 12:15:12;;;;;;;;;;;;;;;38.91;16.42;101459.78;5018230;28;19937;-88
2022/08/13 12:17:42;;;;;;;;;;;;;;;39.20;15.55;101468.31;5023981;28;20668;-87
2022/08/13 12:20:12;;;;;;;;;;;;;;;38.85;16.21;101466.25;5022938;28;20372;-88
2022/08/13 12:22:37;;;;;;;;;;;;;;;38.64;15.97;101458.41;5025045;28;19976;-88
2022/08/13 12:25:03;;;;;;;;;;;;;;;38.56;14.95;101458.72;5022635;28;19964;-88
2022/08/13 12:27:29;;;;;;;;;;;;;;;38.03;16.27;101446.38;5025515;28;19925;-88
2022/08/13 12:29:55;;;;;;;;;;;;;;;38.23;15.95;101443.38;5020879;28;19928;-88
2022/08/13 12:32:20;;;;;;;;;;;;;;;38.59;15.97;101438.94;5021590;28;20364;-88
2022/08/13 12:34:45;;;;;;;;;;;;;;;38.75;15.48;101449.31;5025321;28;19956;-88
2022/08/13 12:37:11;;;;;;;;;;;;;;;38.93;15.24;101432.72;5027066;28;20008;-88
2022/08/13 12:39:36;;;;;;;;;;;;;;;39.33;15.35;101426.59;5028435;28;20015;-89
2022/08/13 12:42:01;;;;;;;;;;;;;;;39.73;15.24;101434.22;5028672;28;19979;-88
2022/08/13 12:44:26;;;;;;;;;;;;;;;39.96;15.13;101425.06;5026063;28;19917;-89
2022/08/13 12:46:52;;;;;;;;;;;;;;;40.12;15.27;101423.50;5022130;28;19925;-88
2022/08/13 12:49:17;;;;;;;;;;;;;;;40.38;15.04;101427.66;5028574;28;19921;-89
2022/08/13 12:51:42;;;;;;;;;;;;;;;40.54;14.87;101424.16;5026821;28;19956;-89
2022/08/13 12:54:08;;;;;;;;;;;;;;;40.63;13.44;101421.81;5028162;28;19921;-88